createdAt,value
2022-09-18T00:00:39.455Z,11.38
2022-09-18T00:03:05.851Z,11.37
2022-09-18T00:05:32.169Z,11.38
2022-09-18T00:07:58.611Z,11.38
2022-09-18T00:10:24.871Z,11.37
2022-09-18T00:12:51.475Z,11.35
2022-09-18T00:15:19.111Z,11.39
2022-09-18T00:17:45.402Z,11.37
2022-09-18T00:20:11.711Z,11.37
2022-09-18T00:22:37.987Z,11.33
2022-09-18T00:25:04.535Z,11.32
2022-09-18T00:27:30.815Z,11.32
2022-09-18T00:29:57.079Z,11.32
2022-09-18T00:32:24.734Z,11.30
2022-09-18T00:34:51.022Z,11.32
2022-09-18T00:37:17.279Z,11.32
2022-09-18T00:39:43.547Z,11.32
2022-09-18T00:42:11.391Z,11.31
2022-09-18T00:44:39.047Z,11.30
2022-09-18T00:47:16.449Z,11.29
2022-09-18T00:49:45.962Z,11.29
2022-09-18T00:52:13.807Z,11.27
2022-09-18T00:54:41.420Z,11.28
2022-09-18T00:57:09.967Z,11.28
2022-09-18T00:59:36.847Z,11.28
2022-09-18T01:02:03.915Z,11.25
2022-09-18T01:04:30.381Z,11.24
2022-09-18T01:07:03.699Z,11.24
2022-09-18T01:09:34.318Z,11.28
2022-09-18T01:12:04.715Z,11.26
2022-09-18T01:14:34.471Z,11.25
2022-09-18T01:17:05.086Z,11.25
2022-09-18T01:19:49.880Z,11.24
2022-09-18T01:22:22.538Z,11.22
2022-09-18T01:25:01.618Z,11.23
2022-09-18T01:27:31.723Z,11.24
2022-09-18T01:30:02.274Z,11.24
2022-09-18T01:32:30.002Z,11.24
2022-09-18T01:34:59.424Z,11.24
2022-09-18T01:37:28.478Z,11.33
2022-09-18T01:39:58.213Z,11.28
2022-09-18T01:42:26.867Z,11.27
2022-09-18T01:44:54.475Z,11.25
2022-09-18T01:47:24.047Z,11.25
2022-09-18T01:49:52.851Z,11.24
2022-09-18T01:52:21.875Z,11.24
2022-09-18T01:54:49.427Z,11.28
2022-09-18T01:57:18.970Z,11.27
2022-09-18T01:59:47.904Z,11.25
2022-09-18T02:02:20.487Z,11.24
2022-09-18T02:04:50.923Z,11.24
2022-09-18T02:07:20.807Z,11.23
2022-09-18T02:09:47.219Z,11.22
2022-09-18T02:12:17.084Z,11.18
2022-09-18T02:14:45.899Z,11.19
2022-09-18T02:17:15.120Z,11.15
2022-09-18T02:19:42.631Z,11.13
2022-09-18T02:22:12.551Z,11.11
2022-09-18T02:24:40.610Z,11.10
2022-09-18T02:27:08.214Z,11.09
2022-09-18T02:29:34.644Z,11.07
2022-09-18T02:32:01.152Z,11.08
2022-09-18T02:34:27.733Z,11.07
2022-09-18T02:36:58.867Z,11.09
2022-09-18T02:39:37.906Z,11.09
2022-09-18T02:42:09.938Z,11.11
2022-09-18T02:44:42.363Z,11.14
2022-09-18T02:47:15.119Z,11.14
2022-09-18T02:49:44.940Z,11.15
2022-09-18T02:52:14.348Z,11.16
2022-09-18T02:54:47.124Z,11.17
2022-09-18T02:57:15.534Z,11.17
2022-09-18T02:59:43.883Z,11.17
2022-09-18T03:02:10.423Z,11.17
2022-09-18T03:04:36.807Z,11.18
2022-09-18T03:07:03.074Z,11.19
2022-09-18T03:09:29.348Z,11.19
2022-09-18T03:11:56.984Z,11.19
2022-09-18T03:14:23.257Z,11.20
2022-09-18T03:16:49.522Z,11.20
2022-09-18T03:19:15.860Z,11.22
2022-09-18T03:21:42.125Z,11.20
2022-09-18T03:24:08.384Z,11.21
2022-09-18T03:26:34.655Z,11.21
2022-09-18T03:29:02.259Z,11.22
2022-09-18T03:31:28.598Z,11.21
2022-09-18T03:33:54.908Z,11.20
2022-09-18T03:36:21.184Z,11.21
2022-09-18T03:38:47.447Z,11.21
2022-09-18T03:41:13.714Z,11.28
2022-09-18T03:43:39.984Z,11.26
2022-09-18T03:46:07.644Z,11.26
2022-09-18T03:48:34.019Z,11.25
2022-09-18T03:51:00.307Z,11.26
2022-09-18T03:53:26.578Z,11.26
2022-09-18T03:55:52.854Z,11.27
2022-09-18T03:58:19.116Z,11.28
2022-09-18T04:00:45.375Z,11.27
2022-09-18T04:03:13.043Z,11.27
2022-09-18T04:05:39.405Z,11.27
2022-09-18T04:08:05.674Z,11.25
2022-09-18T04:10:32.254Z,11.24
2022-09-18T04:12:58.584Z,11.24
2022-09-18T04:15:24.851Z,11.25
2022-09-18T04:17:51.111Z,11.25
2022-09-18T04:20:18.799Z,11.22
2022-09-18T04:22:45.066Z,11.21
2022-09-18T04:25:11.346Z,11.21
2022-09-18T04:27:37.603Z,11.21
2022-09-18T04:30:04.225Z,11.20
2022-09-18T04:32:30.497Z,11.19
2022-09-18T04:34:56.754Z,11.18
2022-09-18T04:37:24.404Z,11.18
2022-09-18T04:39:50.678Z,11.16
2022-09-18T04:42:16.954Z,11.16
2022-09-18T04:44:43.223Z,11.16
2022-09-18T04:47:09.502Z,11.16
2022-09-18T04:49:35.755Z,11.17
2022-09-18T04:52:02.289Z,11.16
2022-09-18T04:54:29.899Z,11.15
2022-09-18T04:56:56.181Z,11.15
2022-09-18T04:59:22.529Z,11.14
2022-09-18T05:01:48.866Z,11.16
2022-09-18T05:04:15.375Z,11.17
2022-09-18T05:06:41.640Z,11.16
2022-09-18T05:09:07.943Z,11.16
2022-09-18T05:11:35.538Z,11.14
2022-09-18T05:14:01.797Z,11.14
2022-09-18T05:16:28.141Z,11.17
2022-09-18T05:18:54.472Z,11.16
2022-09-18T05:21:20.907Z,11.17
2022-09-18T05:23:47.167Z,11.17
2022-09-18T05:26:13.730Z,11.17
2022-09-18T05:28:41.505Z,11.19
2022-09-18T05:31:07.895Z,11.19
2022-09-18T05:33:34.307Z,11.19
2022-09-18T05:36:00.572Z,11.17
2022-09-18T05:38:27.304Z,11.20
2022-09-18T05:40:53.619Z,11.21
2022-09-18T05:43:19.911Z,11.21
2022-09-18T05:45:47.517Z,11.21
2022-09-18T05:48:13.794Z,11.22
2022-09-18T05:50:40.095Z,11.22
2022-09-18T05:53:07.609Z,11.25
2022-09-18T05:55:34.050Z,11.27
2022-09-18T05:58:00.986Z,11.28
2022-09-18T06:00:28.303Z,11.27
2022-09-18T06:02:56.983Z,11.29
2022-09-18T06:05:23.328Z,11.33
2022-09-18T06:07:49.851Z,11.36
2022-09-18T06:10:16.556Z,11.36
2022-09-18T06:12:43.021Z,11.38
2022-09-18T06:15:09.823Z,11.41
2022-09-18T06:17:36.142Z,11.43
2022-09-18T06:20:04.323Z,11.44
2022-09-18T06:22:31.306Z,11.46
2022-09-18T06:24:57.579Z,11.45
2022-09-18T06:27:24.096Z,11.44
2022-09-18T06:29:50.375Z,11.43
2022-09-18T06:32:16.668Z,11.43
2022-09-18T06:34:42.979Z,11.46
2022-09-18T06:37:10.962Z,11.48
2022-09-18T06:39:37.269Z,11.51
2022-09-18T06:42:03.745Z,11.56
2022-09-18T06:44:30.017Z,11.62
2022-09-18T06:46:56.325Z,11.69
2022-09-18T06:49:22.614Z,11.74
2022-09-18T06:51:48.895Z,11.80
2022-09-18T06:54:16.508Z,11.84
2022-09-18T06:56:42.775Z,11.88
2022-09-18T06:59:09.231Z,11.93
2022-09-18T07:01:35.572Z,11.96
2022-09-18T07:04:02.143Z,11.97
2022-09-18T07:06:28.478Z,11.99
2022-09-18T07:08:55.271Z,12.00
2022-09-18T07:11:22.862Z,12.07
2022-09-18T07:13:49.288Z,12.09
2022-09-18T07:16:15.801Z,12.12
2022-09-18T07:18:42.114Z,12.14
2022-09-18T07:21:08.366Z,12.15
2022-09-18T07:23:34.646Z,12.17
2022-09-18T07:26:00.992Z,12.18
2022-09-18T07:28:28.834Z,12.23
2022-09-18T07:30:55.222Z,12.24
2022-09-18T07:33:21.563Z,12.27
2022-09-18T07:35:47.915Z,12.30
2022-09-18T07:38:14.208Z,12.37
2022-09-18T07:40:40.529Z,12.39
2022-09-18T07:43:07.904Z,12.46
2022-09-18T07:45:35.962Z,12.53
2022-09-18T07:48:03.194Z,12.59
2022-09-18T07:50:29.567Z,12.63
2022-09-18T07:52:57.567Z,12.68
2022-09-18T07:55:24.745Z,12.64
2022-09-18T07:57:54.319Z,12.65
2022-09-18T08:00:20.592Z,12.61
2022-09-18T08:02:48.334Z,12.62
2022-09-18T08:05:14.644Z,12.61
2022-09-18T08:07:40.902Z,12.56
2022-09-18T08:10:07.706Z,12.56
2022-09-18T08:12:33.990Z,12.64
2022-09-18T08:15:00.310Z,12.61
2022-09-18T08:17:26.680Z,12.63
2022-09-18T08:19:54.286Z,12.66
2022-09-18T08:22:20.541Z,12.74
2022-09-18T08:24:46.826Z,12.83
2022-09-18T08:27:13.082Z,12.87
2022-09-18T08:29:39.347Z,12.98
2022-09-18T08:32:09.679Z,13.05
2022-09-18T08:34:36.355Z,13.17
2022-09-18T08:37:03.981Z,13.22
2022-09-18T08:39:30.264Z,13.26
2022-09-18T08:42:06.469Z,13.33
2022-09-18T08:44:36.806Z,13.40
2022-09-18T08:47:05.725Z,13.34
2022-09-18T08:49:34.489Z,13.29
2022-09-18T08:52:02.995Z,13.28
2022-09-18T08:54:39.404Z,13.27
2022-09-18T08:57:15.370Z,13.24
2022-09-18T08:59:44.338Z,13.24
2022-09-18T09:02:19.926Z,13.12
2022-09-18T09:04:49.339Z,13.10
2022-09-18T09:07:25.735Z,12.98
2022-09-18T09:10:01.266Z,12.87
2022-09-18T09:12:34.655Z,12.83
2022-09-18T09:15:13.062Z,12.80
2022-09-18T09:17:40.123Z,12.76
2022-09-18T09:20:14.383Z,12.79
2022-09-18T09:22:47.613Z,12.81
2022-09-18T09:25:19.335Z,12.80
2022-09-18T09:27:48.044Z,12.88
2022-09-18T09:30:16.323Z,12.86
2022-09-18T09:32:44.878Z,12.89
2022-09-18T09:35:20.555Z,12.88
2022-09-18T09:37:48.063Z,12.85
2022-09-18T09:40:18.118Z,12.79
2022-09-18T09:42:49.608Z,12.77
2022-09-18T09:45:17.863Z,12.69
2022-09-18T09:47:47.095Z,12.72
2022-09-18T09:50:19.439Z,12.72
2022-09-18T09:52:46.493Z,12.74
2022-09-18T09:55:20.358Z,12.77
2022-09-18T09:57:50.829Z,12.80
2022-09-18T10:00:17.790Z,12.85
2022-09-18T10:02:52.947Z,12.84
2022-09-18T10:05:24.007Z,12.83
2022-09-18T10:07:53.702Z,12.84
2022-09-18T10:10:27.770Z,12.86
2022-09-18T10:12:56.307Z,12.81
2022-09-18T10:15:26.228Z,12.78
2022-09-18T10:17:55.460Z,12.75
2022-09-18T10:20:24.936Z,12.68
2022-09-18T10:22:51.319Z,12.63
2022-09-18T10:25:25.475Z,12.60
2022-09-18T10:27:53.107Z,12.61
2022-09-18T10:30:19.371Z,12.65
2022-09-18T10:32:45.715Z,12.75
2022-09-18T10:35:30.788Z,12.85
2022-09-18T10:37:57.518Z,12.99
2022-09-18T10:40:28.704Z,13.11
2022-09-18T10:42:56.588Z,13.23
2022-09-18T10:45:24.970Z,13.30
2022-09-18T10:48:01.625Z,13.36
2022-09-18T10:50:31.301Z,13.45
2022-09-18T10:53:15.683Z,13.59
2022-09-18T10:55:49.204Z,13.66
2022-09-18T10:58:30.493Z,13.73
2022-09-18T11:01:00.052Z,13.78
2022-09-18T11:03:34.650Z,13.82
2022-09-18T11:06:02.288Z,13.88
2022-09-18T11:08:31.229Z,13.91
2022-09-18T11:11:01.201Z,13.91
2022-09-18T11:13:29.339Z,13.98
2022-09-18T11:15:56.958Z,14.06
2022-09-18T11:18:24.126Z,14.11
2022-09-18T11:20:51.065Z,14.06
2022-09-18T11:23:24.483Z,14.15
2022-09-18T11:26:08.902Z,14.22
2022-09-18T11:28:36.518Z,14.24
2022-09-18T11:31:04.686Z,14.21
2022-09-18T11:33:32.261Z,14.23
2022-09-18T11:36:00.514Z,14.16
2022-09-18T11:38:27.394Z,14.19
2022-09-18T11:40:54.862Z,13.93
2022-09-18T11:43:22.274Z,13.80
2022-09-18T11:45:52.900Z,13.57
2022-09-18T11:48:23.822Z,13.51
2022-09-18T11:50:51.890Z,13.39
2022-09-18T11:53:22.515Z,13.70
2022-09-18T11:55:53.463Z,13.84
2022-09-18T11:58:22.031Z,13.50
2022-09-18T12:00:50.691Z,13.16
2022-09-18T12:03:21.559Z,12.88
2022-09-18T12:05:52.927Z,12.78
2022-09-18T12:08:21.851Z,12.53
2022-09-18T12:10:51.363Z,12.75
2022-09-18T12:13:24.275Z,12.55
2022-09-18T12:15:56.593Z,12.45
2022-09-18T12:18:26.682Z,12.42
2022-09-18T12:20:57.046Z,12.42
2022-09-18T12:23:24.704Z,12.38
2022-09-18T12:25:56.859Z,12.35
2022-09-18T12:28:31.495Z,12.46
2022-09-18T12:31:03.130Z,12.66
2022-09-18T12:33:36.859Z,12.59
2022-09-18T12:36:20.494Z,12.88
2022-09-18T12:38:55.027Z,12.93
2022-09-18T12:41:31.113Z,13.01
2022-09-18T12:44:08.578Z,12.87
2022-09-18T12:46:46.047Z,13.12
2022-09-18T12:49:22.711Z,13.27
2022-09-18T12:51:52.167Z,13.15
2022-09-18T12:54:36.055Z,13.06
2022-09-18T12:57:17.519Z,12.86
2022-09-18T12:59:51.625Z,12.90
2022-09-18T13:02:23.486Z,12.92
2022-09-18T13:04:54.516Z,12.88
2022-09-18T13:07:24.718Z,12.94
2022-09-18T13:09:54.828Z,12.85
2022-09-18T13:12:27.270Z,12.96
2022-09-18T13:14:55.273Z,12.81
2022-09-18T13:17:23.909Z,12.95
2022-09-18T13:19:54.895Z,12.79
2022-09-18T13:22:22.520Z,12.80
2022-09-18T13:24:51.662Z,12.66
2022-09-18T13:27:19.998Z,12.94
2022-09-18T13:29:47.904Z,12.72
2022-09-18T13:32:15.987Z,12.53
2022-09-18T13:34:46.570Z,12.72
2022-09-18T13:37:14.580Z,12.66
2022-09-18T13:40:08.820Z,12.67
2022-09-18T13:42:36.539Z,12.86
2022-09-18T13:45:05.016Z,12.84
2022-09-18T13:47:31.691Z,12.74
2022-09-18T13:50:00.114Z,12.59
2022-09-18T13:52:27.753Z,12.54
2022-09-18T13:55:01.232Z,12.32
2022-09-18T13:57:30.662Z,12.28
2022-09-18T13:59:57.601Z,12.37
2022-09-18T14:02:25.510Z,12.35
2022-09-18T14:05:02.342Z,12.42
2022-09-18T14:07:55.841Z,12.32
2022-09-18T14:10:28.547Z,12.26
2022-09-18T14:13:27.886Z,12.25
2022-09-18T14:15:55.285Z,12.24
2022-09-18T14:18:23.776Z,12.25
2022-09-18T14:20:51.177Z,12.25
2022-09-18T14:23:36.229Z,12.29
2022-09-18T14:26:07.325Z,12.31
2022-09-18T14:28:33.859Z,12.36
2022-09-18T14:31:10.455Z,12.36
2022-09-18T14:33:36.749Z,12.33
2022-09-18T14:36:04.346Z,12.36
2022-09-18T14:38:32.860Z,12.53
2022-09-18T14:41:02.760Z,12.49
2022-09-18T14:43:30.345Z,12.46
2022-09-18T14:45:56.725Z,12.44
2022-09-18T14:48:26.930Z,12.38
2022-09-18T14:51:00.194Z,12.29
2022-09-18T14:53:27.248Z,12.40
2022-09-18T14:55:55.494Z,12.58
2022-09-18T14:58:22.879Z,12.74
2022-09-18T15:00:53.122Z,12.74
2022-09-18T15:03:21.784Z,12.45
2022-09-18T15:05:50.080Z,12.54
2022-09-18T15:08:18.031Z,12.54
2022-09-18T15:10:45.866Z,12.67
2022-09-18T15:13:13.543Z,12.79
2022-09-18T15:15:40.370Z,12.65
2022-09-18T15:18:17.190Z,12.65
2022-09-18T15:20:46.363Z,12.48
2022-09-18T15:23:19.570Z,12.54
2022-09-18T15:25:48.173Z,12.36
2022-09-18T15:28:16.390Z,12.40
2022-09-18T15:30:42.857Z,12.44
2022-09-18T15:33:13.549Z,12.34
2022-09-18T15:35:41.879Z,12.20
2022-09-18T15:38:13.840Z,12.11
2022-09-18T15:40:40.461Z,12.08
2022-09-18T15:43:26.803Z,12.11
2022-09-18T15:46:01.194Z,12.06
2022-09-18T15:48:34.724Z,12.00
2022-09-18T15:51:07.722Z,11.89
2022-09-18T15:53:34.078Z,12.08
2022-09-18T15:56:05.461Z,12.01
2022-09-18T15:58:42.549Z,11.93
2022-09-18T16:01:15.573Z,11.96
2022-09-18T16:03:42.101Z,12.01
2022-09-18T16:06:19.811Z,12.07
2022-09-18T16:08:50.000Z,12.06
2022-09-18T16:11:35.451Z,12.03
2022-09-18T16:14:01.830Z,12.07
2022-09-18T16:16:28.229Z,12.09
2022-09-18T16:18:55.493Z,11.95
2022-09-18T16:21:23.954Z,11.88
2022-09-18T16:23:51.275Z,12.11
2022-09-18T16:26:22.500Z,11.94
2022-09-18T16:28:50.843Z,11.96
2022-09-18T16:31:18.635Z,11.88
2022-09-18T16:33:49.731Z,12.03
2022-09-18T16:36:22.105Z,11.89
2022-09-18T16:38:49.761Z,11.87
2022-09-18T16:41:16.048Z,11.83
2022-09-18T16:43:42.339Z,11.94
2022-09-18T16:46:08.602Z,11.93
2022-09-18T16:48:35.089Z,11.90
2022-09-18T16:51:01.380Z,11.90
2022-09-18T16:53:27.842Z,11.92
2022-09-18T16:55:56.235Z,11.89
2022-09-18T16:58:23.842Z,11.83
2022-09-18T17:00:50.505Z,11.86
2022-09-18T17:03:17.103Z,11.82
2022-09-18T17:05:43.501Z,12.01
2022-09-18T17:08:09.800Z,12.13
2022-09-18T17:10:36.393Z,12.07
2022-09-18T17:13:04.024Z,11.89
2022-09-18T17:15:30.305Z,12.17
2022-09-18T17:17:56.887Z,11.98
2022-09-18T17:20:23.241Z,11.67
2022-09-18T17:22:49.523Z,11.54
2022-09-18T17:25:15.994Z,11.53
2022-09-18T17:27:43.798Z,11.40
2022-09-18T17:30:12.197Z,11.33
2022-09-18T17:32:38.466Z,11.37
2022-09-18T17:35:05.198Z,11.37
2022-09-18T17:37:31.655Z,11.32
2022-09-18T17:39:57.962Z,11.25
2022-09-18T17:42:24.294Z,11.40
2022-09-18T17:44:50.561Z,11.42
2022-09-18T17:47:18.183Z,11.38
2022-09-18T17:49:44.461Z,11.53
2022-09-18T17:52:10.727Z,11.46
2022-09-18T17:54:37.031Z,11.24
2022-09-18T17:57:03.394Z,11.16
2022-09-18T17:59:29.667Z,11.00
2022-09-18T18:01:55.985Z,10.95
2022-09-18T18:04:23.623Z,10.98
2022-09-18T18:06:49.918Z,11.10
2022-09-18T18:09:16.206Z,11.02
2022-09-18T18:11:42.486Z,10.93
2022-09-18T18:14:08.750Z,10.85
2022-09-18T18:16:35.086Z,10.89
2022-09-18T18:19:03.163Z,11.05
2022-09-18T18:21:31.758Z,11.15
2022-09-18T18:23:58.926Z,11.01
2022-09-18T18:26:25.643Z,10.92
2022-09-18T18:28:51.933Z,10.88
2022-09-18T18:31:18.282Z,10.88
2022-09-18T18:33:44.629Z,10.79
2022-09-18T18:36:12.389Z,10.81
2022-09-18T18:38:40.370Z,10.74
2022-09-18T18:41:07.116Z,10.69
2022-09-18T18:43:33.794Z,10.70
2022-09-18T18:46:00.091Z,10.81
2022-09-18T18:48:26.352Z,10.68
2022-09-18T18:50:52.634Z,10.95
2022-09-18T18:53:18.911Z,10.83
2022-09-18T18:55:48.380Z,10.70
2022-09-18T18:58:14.946Z,10.71
2022-09-18T19:00:41.349Z,10.70
2022-09-18T19:03:07.778Z,10.62
2022-09-18T19:05:34.085Z,10.66
2022-09-18T19:08:00.481Z,10.71
2022-09-18T19:10:26.761Z,10.69
2022-09-18T19:12:54.924Z,10.64
2022-09-18T19:15:21.196Z,10.50
2022-09-18T19:17:48.735Z,10.62
2022-09-18T19:20:15.018Z,10.52
2022-09-18T19:22:41.283Z,10.58
2022-09-18T19:25:07.713Z,10.49
2022-09-18T19:27:34.003Z,10.43
2022-09-18T19:30:01.630Z,10.33
2022-09-18T19:32:27.908Z,10.33
2022-09-18T19:34:54.167Z,10.32
2022-09-18T19:37:20.430Z,10.29
2022-09-18T19:39:46.706Z,10.11
2022-09-18T19:42:13.784Z,10.13
2022-09-18T19:44:41.691Z,10.00
2022-09-18T19:47:14.697Z,10.10
2022-09-18T19:49:41.210Z,10.06
2022-09-18T19:52:14.997Z,9.91
2022-09-18T19:54:41.274Z,9.96
2022-09-18T19:57:07.540Z,9.90
2022-09-18T19:59:33.832Z,9.82
2022-09-18T20:02:00.212Z,9.82
2022-09-18T20:04:28.188Z,9.77
2022-09-18T20:06:54.461Z,9.78
2022-09-18T20:09:20.859Z,9.81
2022-09-18T20:11:48.359Z,9.75
2022-09-18T20:14:14.917Z,9.72
2022-09-18T20:16:41.230Z,9.72
2022-09-18T20:19:07.527Z,9.94
2022-09-18T20:21:35.119Z,9.94
2022-09-18T20:24:01.609Z,9.80
2022-09-18T20:26:27.892Z,9.66
2022-09-18T20:28:54.176Z,9.63
2022-09-18T20:31:20.507Z,9.66
2022-09-18T20:33:46.892Z,9.58
2022-09-18T20:36:13.165Z,9.54
2022-09-18T20:38:41.488Z,9.63
2022-09-18T20:41:08.860Z,9.50
2022-09-18T20:43:35.273Z,9.48
2022-09-18T20:46:03.044Z,9.45
2022-09-18T20:48:31.146Z,9.42
2022-09-18T20:50:57.437Z,9.40
2022-09-18T20:53:23.700Z,9.40
2022-09-18T20:55:51.347Z,9.46
2022-09-18T20:58:17.626Z,9.56
2022-09-18T21:00:43.917Z,9.49
2022-09-18T21:03:10.195Z,9.36
2022-09-18T21:05:36.475Z,9.31
2022-09-18T21:08:02.726Z,9.30
2022-09-18T21:10:29.170Z,9.27
2022-09-18T21:12:56.902Z,9.28
2022-09-18T21:15:23.182Z,9.27
2022-09-18T21:17:49.443Z,9.30
2022-09-18T21:20:15.735Z,9.32
2022-09-18T21:22:44.575Z,9.26
2022-09-18T21:25:10.838Z,9.23
2022-09-18T21:27:37.090Z,9.20
2022-09-18T21:30:05.206Z,9.20
2022-09-18T21:32:31.462Z,9.22
2022-09-18T21:34:57.738Z,9.18
2022-09-18T21:37:23.981Z,9.15
2022-09-18T21:39:50.271Z,9.12
2022-09-18T21:42:16.531Z,9.13
2022-09-18T21:44:42.782Z,9.13
2022-09-18T21:47:14.154Z,9.10
2022-09-18T21:49:40.413Z,9.15
2022-09-18T21:52:07.630Z,9.10
2022-09-18T21:54:34.195Z,9.07
2022-09-18T21:57:00.879Z,9.05
2022-09-18T21:59:27.878Z,9.12
2022-09-18T22:01:54.654Z,9.03
2022-09-18T22:04:23.044Z,9.00
2022-09-18T22:06:49.434Z,9.00
2022-09-18T22:09:16.421Z,9.00
2022-09-18T22:11:43.250Z,8.98
2022-09-18T22:14:13.845Z,8.96
2022-09-18T22:16:40.378Z,8.93
2022-09-18T22:19:06.953Z,8.91
2022-09-18T22:21:35.798Z,8.90
2022-09-18T22:24:03.261Z,8.89
2022-09-18T22:26:29.517Z,8.88
2022-09-18T22:28:56.779Z,8.86
2022-09-18T22:31:24.315Z,8.86
2022-09-18T22:33:53.184Z,8.88
2022-09-18T22:36:20.077Z,8.92
2022-09-18T22:38:47.895Z,8.96
2022-09-18T22:41:14.179Z,8.98
2022-09-18T22:43:40.523Z,8.92
2022-09-18T22:46:08.487Z,8.90
2022-09-18T22:48:35.070Z,8.89
2022-09-18T22:51:05.534Z,8.89
2022-09-18T22:53:32.462Z,8.85
2022-09-18T22:56:02.042Z,8.84
2022-09-18T22:58:28.303Z,8.85
2022-09-18T23:00:54.594Z,8.83
2022-09-18T23:03:20.866Z,8.81
2022-09-18T23:05:47.143Z,8.79
2022-09-18T23:08:13.419Z,8.77
2022-09-18T23:10:39.669Z,8.77
2022-09-18T23:13:07.283Z,8.79
2022-09-18T23:15:35.913Z,8.75
2022-09-18T23:18:02.178Z,8.77
2022-09-18T23:20:28.951Z,8.76
2022-09-18T23:22:55.193Z,8.75
2022-09-18T23:25:21.463Z,8.71
2022-09-18T23:27:47.708Z,8.74
2022-09-18T23:30:15.437Z,8.76
2022-09-18T23:32:41.705Z,8.74
2022-09-18T23:35:08.461Z,8.72
2022-09-18T23:37:34.709Z,8.67
2022-09-18T23:40:01.275Z,8.95
2022-09-18T23:42:27.583Z,8.95
2022-09-18T23:44:53.850Z,8.81
2022-09-18T23:47:21.446Z,8.74
2022-09-18T23:49:47.702Z,8.68
2022-09-18T23:52:13.982Z,8.65
2022-09-18T23:54:40.248Z,8.65
2022-09-18T23:57:06.521Z,8.73
2022-09-18T23:59:32.778Z,8.63
